San Lorenzo, Mexico

6:45 PM CDT on June 24, 2017 (GMT -0500)
C P A Carlos Rovirosa International | | Change Station

Elev 43 ft 18.00 °N, 92.82 °W | Updated 57 minutes ago

Rain
Rain
84 °F
Feels Like 94 °F
N
5
Wind Variable Wind from West

Today
High -- | Low -- °F
--% Chance of Precip.
Yesterday
High -- | Low -- °F
Precip. -- in
Pressure 29.89 in
Visibility 5.0 miles
Clouds Scattered Clouds 1000 ft
Mostly Cloudy 7000 ft
Mostly Cloudy 20000 ft
Heat Index 94 °F
Dew Point 77 °F
Humidity 79%
Rainfall 0.00 in
Snow Depth Not available.
6:39 AM 7:49 PM
New Moon, 1% visible
METAR MMVA 242248Z 26004KT 5SM SCT010TCU BKN070 BKN200 29/25 A2989 RMK 8/236 HZY
Pressure 29.89 in
Visibility 5.0 miles
Clouds Scattered Clouds 1000 ft
Mostly Cloudy 7000 ft
Mostly Cloudy 20000 ft
Heat Index 94 °F
Dew Point 77 °F
Humidity 79%
Rainfall 0.00 in
Snow Depth Not available.
6:39 AM 7:49 PM
New Moon, 1% visible
METAR MMVA 242248Z 26004KT 5SM SCT010TCU BKN070 BKN200 29/25 A2989 RMK 8/236 HZY

Get Severe Weather Alerts

Thanks for signing up!

Be on the lookout for a verification email in your inbox.

You'll start receiving the daily forecast at 6 AM.

×

10-Day Weather Forecast

No radar image for this location.
×

Almanac

Astronomy

Jun. 24, 2017 Rise Set
Actual Time
Civil Twilight
Nautical Twilight
Astronomical Twilight
Moon
Length of Visible Light
Length of Day
Tomorrow will be .
, % of the Moon is Illuminated

Today's Extremes

Country Highs Country Lows

Community

WunderPhotos

Category 6

Welcome to Category 6. This is the collective home for Weather Underground's featured writeups by Dr. Jeff Masters (right), Bob Henson (left), Chris Burt, and other regular contributors.

Nearby

Air Quality

  Air Quality AQ Index Pollutant
Not available.

Snow Depth

Station Depth Elevation

Earthquake Activity

City Distance Mag. Time & Date
Minimum magnitude displayed is 2.5.

Coastal Water Temperatures

Place Temperature

Stations

Nearby Weather Stations

Station Location Temp. Windchill Dew Point Humidity Wind Precip. Elev Updated Type